sensor_id;sensor_type;location;lat;lon;timestamp;temperature;humidity
65378;SHT31;51982;51.042;13.806;2023-05-29T00:00:12;17.45;70.12
65378;SHT31;51982;51.042;13.806;2023-05-29T00:02:43;17.43;70.11
65378;SHT31;51982;51.042;13.806;2023-05-29T00:05:10;17.39;70.28
65378;SHT31;51982;51.042;13.806;2023-05-29T00:17:52;17.18;70.34
65378;SHT31;51982;51.042;13.806;2023-05-29T00:20:31;17.12;70.21
65378;SHT31;51982;51.042;13.806;2023-05-29T00:23:07;17.05;70.42
65378;SHT31;51982;51.042;13.806;2023-05-29T00:25:35;17.04;70.25
65378;SHT31;51982;51.042;13.806;2023-05-29T00:28:00;17.01;70.51
65378;SHT31;51982;51.042;13.806;2023-05-29T00:30:25;16.99;70.51
65378;SHT31;51982;51.042;13.806;2023-05-29T00:32:51;16.92;70.44
65378;SHT31;51982;51.042;13.806;2023-05-29T00:35:17;16.87;70.57
65378;SHT31;51982;51.042;13.806;2023-05-29T00:37:42;16.84;70.82
65378;SHT31;51982;51.042;13.806;2023-05-29T00:40:08;16.85;71.01
65378;SHT31;51982;51.042;13.806;2023-05-29T00:42:33;16.85;71.02
65378;SHT31;51982;51.042;13.806;2023-05-29T00:44:58;16.79;70.90
65378;SHT31;51982;51.042;13.806;2023-05-29T00:47:24;16.78;70.75
65378;SHT31;51982;51.042;13.806;2023-05-29T00:49:50;16.71;70.68
65378;SHT31;51982;51.042;13.806;2023-05-29T00:52:17;16.65;70.73
65378;SHT31;51982;51.042;13.806;2023-05-29T00:54:44;16.65;70.85
65378;SHT31;51982;51.042;13.806;2023-05-29T00:57:12;16.57;70.78
65378;SHT31;51982;51.042;13.806;2023-05-29T00:59:37;16.57;70.98
65378;SHT31;51982;51.042;13.806;2023-05-29T01:02:04;16.57;71.05
65378;SHT31;51982;51.042;13.806;2023-05-29T01:04:29;16.58;71.17
65378;SHT31;51982;51.042;13.806;2023-05-29T01:06:58;16.58;71.01
65378;SHT31;51982;51.042;13.806;2023-05-29T01:09:23;16.56;70.80
65378;SHT31;51982;51.042;13.806;2023-05-29T01:12:19;16.48;71.04
65378;SHT31;51982;51.042;13.806;2023-05-29T01:20:35;16.33;71.01
65378;SHT31;51982;51.042;13.806;2023-05-29T01:23:26;16.30;71.22
65378;SHT31;51982;51.042;13.806;2023-05-29T01:26:05;16.27;71.04
65378;SHT31;51982;51.042;13.806;2023-05-29T01:28:42;16.26;71.20
65378;SHT31;51982;51.042;13.806;2023-05-29T01:31:08;16.20;71.12
65378;SHT31;51982;51.042;13.806;2023-05-29T01:33:38;16.14;71.29
65378;SHT31;51982;51.042;13.806;2023-05-29T01:36:05;16.12;71.42
65378;SHT31;51982;51.042;13.806;2023-05-29T01:38:31;16.05;71.56
65378;SHT31;51982;51.042;13.806;2023-05-29T01:40:56;15.97;71.78
65378;SHT31;51982;51.042;13.806;2023-05-29T01:43:22;15.93;71.89
65378;SHT31;51982;51.042;13.806;2023-05-29T01:45:47;15.90;72.02
65378;SHT31;51982;51.042;13.806;2023-05-29T01:48:13;15.92;71.98
65378;SHT31;51982;51.042;13.806;2023-05-29T01:50:38;15.86;72.11
65378;SHT31;51982;51.042;13.806;2023-05-29T01:53:05;15.83;72.15
65378;SHT31;51982;51.042;13.806;2023-05-29T01:55:30;15.81;72.33
65378;SHT31;51982;51.042;13.806;2023-05-29T01:57:55;15.78;72.26
65378;SHT31;51982;51.042;13.806;2023-05-29T02:00:21;15.72;72.31
65378;SHT31;51982;51.042;13.806;2023-05-29T02:02:46;15.70;72.44
65378;SHT31;51982;51.042;13.806;2023-05-29T02:05:11;15.66;72.42
65378;SHT31;51982;51.042;13.806;2023-05-29T02:07:37;15.58;72.52
65378;SHT31;51982;51.042;13.806;2023-05-29T02:10:06;15.48;72.54
65378;SHT31;51982;51.042;13.806;2023-05-29T02:12:31;15.46;72.70
65378;SHT31;51982;51.042;13.806;2023-05-29T02:14:57;15.42;72.73
65378;SHT31;51982;51.042;13.806;2023-05-29T02:17:22;15.44;72.84
65378;SHT31;51982;51.042;13.806;2023-05-29T02:19:48;15.39;72.74
65378;SHT31;51982;51.042;13.806;2023-05-29T02:22:13;15.41;72.79
65378;SHT31;51982;51.042;13.806;2023-05-29T02:24:38;15.39;72.90
65378;SHT31;51982;51.042;13.806;2023-05-29T02:27:04;15.35;72.95
65378;SHT31;51982;51.042;13.806;2023-05-29T02:29:29;15.38;72.91
65378;SHT31;51982;51.042;13.806;2023-05-29T02:31:54;15.36;72.99
65378;SHT31;51982;51.042;13.806;2023-05-29T02:34:20;15.35;73.13
65378;SHT31;51982;51.042;13.806;2023-05-29T02:36:48;15.34;73.06
65378;SHT31;51982;51.042;13.806;2023-05-29T02:39:13;15.35;72.95
65378;SHT31;51982;51.042;13.806;2023-05-29T02:41:38;15.30;72.94
65378;SHT31;51982;51.042;13.806;2023-05-29T02:44:04;15.21;73.14
65378;SHT31;51982;51.042;13.806;2023-05-29T02:46:29;15.21;73.29
65378;SHT31;51982;51.042;13.806;2023-05-29T02:48:54;15.20;73.08
65378;SHT31;51982;51.042;13.806;2023-05-29T02:51:19;15.14;73.15
65378;SHT31;51982;51.042;13.806;2023-05-29T02:53:44;15.17;72.93
65378;SHT31;51982;51.042;13.806;2023-05-29T02:56:10;15.10;72.97
65378;SHT31;51982;51.042;13.806;2023-05-29T02:58:35;15.04;73.01
65378;SHT31;51982;51.042;13.806;2023-05-29T03:01:01;14.93;73.08
65378;SHT31;51982;51.042;13.806;2023-05-29T03:03:29;14.91;73.12
65378;SHT31;51982;51.042;13.806;2023-05-29T03:05:55;14.87;73.15
65378;SHT31;51982;51.042;13.806;2023-05-29T03:08:20;14.84;73.19
65378;SHT31;51982;51.042;13.806;2023-05-29T03:10:45;14.77;73.23
65378;SHT31;51982;51.042;13.806;2023-05-29T03:13:12;14.77;73.28
65378;SHT31;51982;51.042;13.806;2023-05-29T03:15:37;14.79;73.51
65378;SHT31;51982;51.042;13.806;2023-05-29T03:18:02;14.81;73.35
65378;SHT31;51982;51.042;13.806;2023-05-29T03:20:28;14.84;73.37
65378;SHT31;51982;51.042;13.806;2023-05-29T03:22:53;14.84;73.47
65378;SHT31;51982;51.042;13.806;2023-05-29T03:25:19;14.83;73.41
65378;SHT31;51982;51.042;13.806;2023-05-29T03:27:45;14.87;73.44
65378;SHT31;51982;51.042;13.806;2023-05-29T03:30:11;14.84;73.37
65378;SHT31;51982;51.042;13.806;2023-05-29T03:32:36;14.80;73.39
65378;SHT31;51982;51.042;13.806;2023-05-29T03:35:01;14.80;73.46
65378;SHT31;51982;51.042;13.806;2023-05-29T03:37:28;14.79;73.52
65378;SHT31;51982;51.042;13.806;2023-05-29T03:39:53;14.77;73.45
65378;SHT31;51982;51.042;13.806;2023-05-29T03:42:20;14.71;73.46
65378;SHT31;51982;51.042;13.806;2023-05-29T03:44:45;14.67;73.70
65378;SHT31;51982;51.042;13.806;2023-05-29T03:47:10;14.64;73.84
65378;SHT31;51982;51.042;13.806;2023-05-29T03:49:35;14.69;73.77
65378;SHT31;51982;51.042;13.806;2023-05-29T03:52:01;14.63;73.57
65378;SHT31;51982;51.042;13.806;2023-05-29T03:54:26;14.61;73.73
65378;SHT31;51982;51.042;13.806;2023-05-29T03:56:51;14.64;73.53
65378;SHT31;51982;51.042;13.806;2023-05-29T03:59:16;14.61;73.44
65378;SHT31;51982;51.042;13.806;2023-05-29T04:01:41;14.61;73.93
65378;SHT31;51982;51.042;13.806;2023-05-29T04:04:07;14.67;73.75
65378;SHT31;51982;51.042;13.806;2023-05-29T04:06:32;14.69;73.76
65378;SHT31;51982;51.042;13.806;2023-05-29T04:08:57;14.66;73.83
65378;SHT31;51982;51.042;13.806;2023-05-29T04:11:22;14.67;74.00
65378;SHT31;51982;51.042;13.806;2023-05-29T04:13:48;14.70;74.04
65378;SHT31;51982;51.042;13.806;2023-05-29T04:16:14;14.69;73.73
65378;SHT31;51982;51.042;13.806;2023-05-29T04:18:39;14.70;73.84
65378;SHT31;51982;51.042;13.806;2023-05-29T04:21:05;14.71;73.97
65378;SHT31;51982;51.042;13.806;2023-05-29T04:23:30;14.67;73.87
65378;SHT31;51982;51.042;13.806;2023-05-29T04:25:56;14.64;73.98
65378;SHT31;51982;51.042;13.806;2023-05-29T04:28:21;14.63;74.19
65378;SHT31;51982;51.042;13.806;2023-05-29T04:30:46;14.64;74.19
65378;SHT31;51982;51.042;13.806;2023-05-29T04:33:12;14.61;73.86
65378;SHT31;51982;51.042;13.806;2023-05-29T04:35:37;14.60;73.89
65378;SHT31;51982;51.042;13.806;2023-05-29T04:38:02;14.63;73.91
65378;SHT31;51982;51.042;13.806;2023-05-29T04:40:29;14.66;73.62
65378;SHT31;51982;51.042;13.806;2023-05-29T04:42:56;14.64;73.47
65378;SHT31;51982;51.042;13.806;2023-05-29T04:45:25;14.66;73.57
65378;SHT31;51982;51.042;13.806;2023-05-29T04:47:50;14.57;73.27
65378;SHT31;51982;51.042;13.806;2023-05-29T04:50:18;14.59;73.43
65378;SHT31;51982;51.042;13.806;2023-05-29T04:52:43;14.57;73.22
65378;SHT31;51982;51.042;13.806;2023-05-29T04:55:09;14.57;73.25
65378;SHT31;51982;51.042;13.806;2023-05-29T04:57:35;14.60;73.13
65378;SHT31;51982;51.042;13.806;2023-05-29T05:00:01;14.64;73.67
65378;SHT31;51982;51.042;13.806;2023-05-29T05:02:30;14.67;73.27
65378;SHT31;51982;51.042;13.806;2023-05-29T05:04:55;14.64;73.13
65378;SHT31;51982;51.042;13.806;2023-05-29T05:07:20;14.70;73.22
65378;SHT31;51982;51.042;13.806;2023-05-29T05:09:46;14.70;73.17
65378;SHT31;51982;51.042;13.806;2023-05-29T05:12:11;14.69;73.30
65378;SHT31;51982;51.042;13.806;2023-05-29T05:14:36;14.71;73.44
65378;SHT31;51982;51.042;13.806;2023-05-29T05:17:01;14.71;73.78
65378;SHT31;51982;51.042;13.806;2023-05-29T05:19:27;14.79;73.83
65378;SHT31;51982;51.042;13.806;2023-05-29T05:21:52;14.77;73.71
65378;SHT31;51982;51.042;13.806;2023-05-29T05:24:17;14.80;73.43
65378;SHT31;51982;51.042;13.806;2023-05-29T05:26:42;14.84;73.54
65378;SHT31;51982;51.042;13.806;2023-05-29T05:29:08;14.85;73.73
65378;SHT31;51982;51.042;13.806;2023-05-29T05:31:33;14.91;73.96
65378;SHT31;51982;51.042;13.806;2023-05-29T05:33:58;14.94;73.58
65378;SHT31;51982;51.042;13.806;2023-05-29T05:36:23;14.98;73.69
65378;SHT31;51982;51.042;13.806;2023-05-29T05:38:49;14.98;73.66
65378;SHT31;51982;51.042;13.806;2023-05-29T05:41:14;14.97;73.38
65378;SHT31;51982;51.042;13.806;2023-05-29T05:43:39;15.00;73.59
65378;SHT31;51982;51.042;13.806;2023-05-29T05:46:05;15.07;73.75
65378;SHT31;51982;51.042;13.806;2023-05-29T05:48:30;15.12;73.73
65378;SHT31;51982;51.042;13.806;2023-05-29T05:50:55;15.17;73.50
65378;SHT31;51982;51.042;13.806;2023-05-29T05:53:20;15.17;73.53
65378;SHT31;51982;51.042;13.806;2023-05-29T05:55:46;15.21;73.59
65378;SHT31;51982;51.042;13.806;2023-05-29T05:58:11;15.24;73.57
65378;SHT31;51982;51.042;13.806;2023-05-29T06:00:36;15.28;73.59
65378;SHT31;51982;51.042;13.806;2023-05-29T06:03:02;15.32;73.42
65378;SHT31;51982;51.042;13.806;2023-05-29T06:05:29;15.35;73.28
65378;SHT31;51982;51.042;13.806;2023-05-29T06:07:54;15.42;73.61
65378;SHT31;51982;51.042;13.806;2023-05-29T06:10:20;15.44;73.39
65378;SHT31;51982;51.042;13.806;2023-05-29T06:12:45;15.48;73.27
65378;SHT31;51982;51.042;13.806;2023-05-29T06:15:10;15.54;73.83
65378;SHT31;51982;51.042;13.806;2023-05-29T06:17:35;15.59;73.24
65378;SHT31;51982;51.042;13.806;2023-05-29T06:20:01;15.62;73.16
65378;SHT31;51982;51.042;13.806;2023-05-29T06:22:26;15.69;73.17
65378;SHT31;51982;51.042;13.806;2023-05-29T06:24:51;15.76;72.91
65378;SHT31;51982;51.042;13.806;2023-05-29T06:27:16;15.79;72.59
65378;SHT31;51982;51.042;13.806;2023-05-29T06:29:43;15.82;73.17
65378;SHT31;51982;51.042;13.806;2023-05-29T06:32:08;15.79;73.55
65378;SHT31;51982;51.042;13.806;2023-05-29T06:34:35;15.87;73.54
65378;SHT31;51982;51.042;13.806;2023-05-29T06:37:01;15.92;73.55
65378;SHT31;51982;51.042;13.806;2023-05-29T06:39:26;15.96;73.60
65378;SHT31;51982;51.042;13.806;2023-05-29T06:41:57;15.99;73.02
65378;SHT31;51982;51.042;13.806;2023-05-29T06:44:22;15.99;73.11
65378;SHT31;51982;51.042;13.806;2023-05-29T06:46:52;16.05;72.59
65378;SHT31;51982;51.042;13.806;2023-05-29T06:49:20;16.10;72.39
65378;SHT31;51982;51.042;13.806;2023-05-29T06:51:55;16.07;72.29
65378;SHT31;51982;51.042;13.806;2023-05-29T06:54:23;16.16;72.36
65378;SHT31;51982;51.042;13.806;2023-05-29T06:56:52;16.27;72.55
65378;SHT31;51982;51.042;13.806;2023-05-29T06:59:19;16.34;72.10
65378;SHT31;51982;51.042;13.806;2023-05-29T07:01:45;16.44;72.02
65378;SHT31;51982;51.042;13.806;2023-05-29T07:04:11;16.53;71.67
65378;SHT31;51982;51.042;13.806;2023-05-29T07:06:36;16.65;71.96
65378;SHT31;51982;51.042;13.806;2023-05-29T07:09:01;16.77;71.66
65378;SHT31;51982;51.042;13.806;2023-05-29T07:11:27;16.89;71.53
65378;SHT31;51982;51.042;13.806;2023-05-29T07:13:53;16.99;71.37
65378;SHT31;51982;51.042;13.806;2023-05-29T07:16:19;17.11;70.95
65378;SHT31;51982;51.042;13.806;2023-05-29T07:18:44;17.16;70.81
65378;SHT31;51982;51.042;13.806;2023-05-29T07:21:10;17.25;70.74
65378;SHT31;51982;51.042;13.806;2023-05-29T07:23:35;17.35;70.72
65378;SHT31;51982;51.042;13.806;2023-05-29T07:26:00;17.39;70.80
65378;SHT31;51982;51.042;13.806;2023-05-29T07:28:26;17.43;71.30
65378;SHT31;51982;51.042;13.806;2023-05-29T07:30:51;17.46;71.23
65378;SHT31;51982;51.042;13.806;2023-05-29T07:33:16;17.56;73.56
65378;SHT31;51982;51.042;13.806;2023-05-29T07:35:41;17.67;73.04
65378;SHT31;51982;51.042;13.806;2023-05-29T07:38:07;17.69;71.65
65378;SHT31;51982;51.042;13.806;2023-05-29T07:40:32;17.70;71.51
65378;SHT31;51982;51.042;13.806;2023-05-29T07:42:58;17.69;71.03
65378;SHT31;51982;51.042;13.806;2023-05-29T07:45:26;17.73;70.31
65378;SHT31;51982;51.042;13.806;2023-05-29T07:47:51;17.76;70.36
65378;SHT31;51982;51.042;13.806;2023-05-29T07:50:17;17.77;70.26
65378;SHT31;51982;51.042;13.806;2023-05-29T07:52:42;17.83;70.15
65378;SHT31;51982;51.042;13.806;2023-05-29T07:55:09;17.84;70.54
65378;SHT31;51982;51.042;13.806;2023-05-29T07:57:34;17.84;70.13
65378;SHT31;51982;51.042;13.806;2023-05-29T08:00:00;17.90;70.27
65378;SHT31;51982;51.042;13.806;2023-05-29T08:02:27;17.93;70.05
65378;SHT31;51982;51.042;13.806;2023-05-29T08:04:52;17.97;69.78
65378;SHT31;51982;51.042;13.806;2023-05-29T08:07:18;18.05;70.04
65378;SHT31;51982;51.042;13.806;2023-05-29T08:09:43;18.05;70.71
65378;SHT31;51982;51.042;13.806;2023-05-29T08:12:08;18.11;69.30
65378;SHT31;51982;51.042;13.806;2023-05-29T08:14:33;18.15;69.53
65378;SHT31;51982;51.042;13.806;2023-05-29T08:16:59;18.18;69.67
65378;SHT31;51982;51.042;13.806;2023-05-29T08:19:24;18.23;70.12
65378;SHT31;51982;51.042;13.806;2023-05-29T08:21:50;18.30;69.22
65378;SHT31;51982;51.042;13.806;2023-05-29T08:24:15;18.34;68.71
65378;SHT31;51982;51.042;13.806;2023-05-29T08:26:40;18.37;68.64
65378;SHT31;51982;51.042;13.806;2023-05-29T08:29:06;18.45;68.82
65378;SHT31;51982;51.042;13.806;2023-05-29T08:31:31;18.45;69.14
65378;SHT31;51982;51.042;13.806;2023-05-29T08:33:56;18.52;68.00
65378;SHT31;51982;51.042;13.806;2023-05-29T08:36:22;18.61;67.16
65378;SHT31;51982;51.042;13.806;2023-05-29T08:38:50;18.75;68.14
65378;SHT31;51982;51.042;13.806;2023-05-29T08:41:27;18.76;67.17
65378;SHT31;51982;51.042;13.806;2023-05-29T08:43:54;18.84;66.58
65378;SHT31;51982;51.042;13.806;2023-05-29T08:46:20;19.00;62.54
65378;SHT31;51982;51.042;13.806;2023-05-29T08:48:49;19.06;63.74
65378;SHT31;51982;51.042;13.806;2023-05-29T08:51:21;19.06;63.86
65378;SHT31;51982;51.042;13.806;2023-05-29T08:53:48;19.16;63.27
65378;SHT31;51982;51.042;13.806;2023-05-29T08:56:17;19.23;61.94
65378;SHT31;51982;51.042;13.806;2023-05-29T08:58:43;19.28;61.30
65378;SHT31;51982;51.042;13.806;2023-05-29T09:01:09;19.33;62.13
65378;SHT31;51982;51.042;13.806;2023-05-29T09:03:35;19.46;60.51
65378;SHT31;51982;51.042;13.806;2023-05-29T09:06:03;19.51;60.25
65378;SHT31;51982;51.042;13.806;2023-05-29T09:08:29;19.58;60.63
65378;SHT31;51982;51.042;13.806;2023-05-29T09:10:55;19.58;61.34
65378;SHT31;51982;51.042;13.806;2023-05-29T09:13:20;19.60;61.05
65378;SHT31;51982;51.042;13.806;2023-05-29T09:15:46;19.68;60.83
65378;SHT31;51982;51.042;13.806;2023-05-29T09:18:11;19.79;60.45
65378;SHT31;51982;51.042;13.806;2023-05-29T09:20:36;19.87;59.58
65378;SHT31;51982;51.042;13.806;2023-05-29T09:23:04;19.89;59.39
65378;SHT31;51982;51.042;13.806;2023-05-29T09:25:31;19.94;59.98
65378;SHT31;51982;51.042;13.806;2023-05-29T09:28:02;19.97;61.33
65378;SHT31;51982;51.042;13.806;2023-05-29T09:32:57;19.99;60.27
65378;SHT31;51982;51.042;13.806;2023-05-29T09:35:23;20.09;59.46
65378;SHT31;51982;51.042;13.806;2023-05-29T09:37:48;20.21;59.08
65378;SHT31;51982;51.042;13.806;2023-05-29T09:40:15;20.28;58.31
65378;SHT31;51982;51.042;13.806;2023-05-29T09:42:40;20.26;58.17
65378;SHT31;51982;51.042;13.806;2023-05-29T09:45:06;20.26;57.72
65378;SHT31;51982;51.042;13.806;2023-05-29T09:47:35;20.33;57.90
65378;SHT31;51982;51.042;13.806;2023-05-29T09:50:00;20.42;57.75
65378;SHT31;51982;51.042;13.806;2023-05-29T09:52:29;20.45;56.60
65378;SHT31;51982;51.042;13.806;2023-05-29T09:54:55;20.56;56.93
65378;SHT31;51982;51.042;13.806;2023-05-29T09:57:22;20.60;56.33
65378;SHT31;51982;51.042;13.806;2023-05-29T09:59:49;20.66;57.05
65378;SHT31;51982;51.042;13.806;2023-05-29T10:02:16;20.69;56.00
65378;SHT31;51982;51.042;13.806;2023-05-29T10:04:42;20.75;55.92
65378;SHT31;51982;51.042;13.806;2023-05-29T10:07:17;20.77;56.20
65378;SHT31;51982;51.042;13.806;2023-05-29T10:09:47;20.79;57.20
65378;SHT31;51982;51.042;13.806;2023-05-29T10:12:17;20.86;57.10
65378;SHT31;51982;51.042;13.806;2023-05-29T10:14:49;20.92;56.56
65378;SHT31;51982;51.042;13.806;2023-05-29T10:17:15;21.03;56.99
65378;SHT31;51982;51.042;13.806;2023-05-29T10:19:42;21.07;55.76
65378;SHT31;51982;51.042;13.806;2023-05-29T10:22:10;21.15;55.66
65378;SHT31;51982;51.042;13.806;2023-05-29T10:24:36;21.17;54.48
65378;SHT31;51982;51.042;13.806;2023-05-29T10:27:03;21.13;54.25
65378;SHT31;51982;51.042;13.806;2023-05-29T10:29:38;21.15;54.68
65378;SHT31;51982;51.042;13.806;2023-05-29T10:37:40;21.23;55.07
65378;SHT31;51982;51.042;13.806;2023-05-29T10:40:08;21.37;56.91
65378;SHT31;51982;51.042;13.806;2023-05-29T10:42:48;21.40;55.93
65378;SHT31;51982;51.042;13.806;2023-05-29T10:53:01;21.55;55.31
65378;SHT31;51982;51.042;13.806;2023-05-29T10:55:36;21.52;55.01
65378;SHT31;51982;51.042;13.806;2023-05-29T10:58:06;21.58;55.40
65378;SHT31;51982;51.042;13.806;2023-05-29T11:00:32;21.62;55.14
65378;SHT31;51982;51.042;13.806;2023-05-29T11:03:04;21.69;54.71
65378;SHT31;51982;51.042;13.806;2023-05-29T11:05:29;21.71;55.39
65378;SHT31;51982;51.042;13.806;2023-05-29T11:07:58;21.74;55.94
65378;SHT31;51982;51.042;13.806;2023-05-29T11:13:08;21.84;56.32
65378;SHT31;51982;51.042;13.806;2023-05-29T11:15:34;21.84;55.79
65378;SHT31;51982;51.042;13.806;2023-05-29T11:18:06;21.84;55.80
65378;SHT31;51982;51.042;13.806;2023-05-29T11:20:37;21.81;55.70
65378;SHT31;51982;51.042;13.806;2023-05-29T11:23:06;21.82;55.92
65378;SHT31;51982;51.042;13.806;2023-05-29T11:25:37;21.82;55.06
65378;SHT31;51982;51.042;13.806;2023-05-29T11:28:04;21.86;55.25
65378;SHT31;51982;51.042;13.806;2023-05-29T11:30:40;21.86;53.99
65378;SHT31;51982;51.042;13.806;2023-05-29T11:33:24;21.95;55.20
65378;SHT31;51982;51.042;13.806;2023-05-29T11:35:52;21.96;55.83
65378;SHT31;51982;51.042;13.806;2023-05-29T11:38:20;22.08;55.35
65378;SHT31;51982;51.042;13.806;2023-05-29T11:40:45;22.09;54.43
65378;SHT31;51982;51.042;13.806;2023-05-29T11:43:12;22.08;54.81
65378;SHT31;51982;51.042;13.806;2023-05-29T11:45:38;22.06;54.72
65378;SHT31;51982;51.042;13.806;2023-05-29T11:48:03;22.05;54.64
65378;SHT31;51982;51.042;13.806;2023-05-29T11:50:31;22.01;54.20
65378;SHT31;51982;51.042;13.806;2023-05-29T11:52:57;21.98;54.43
65378;SHT31;51982;51.042;13.806;2023-05-29T11:55:24;22.03;54.13
65378;SHT31;51982;51.042;13.806;2023-05-29T11:57:50;22.12;55.12
65378;SHT31;51982;51.042;13.806;2023-05-29T12:00:18;22.17;55.47
65378;SHT31;51982;51.042;13.806;2023-05-29T12:02:44;22.26;54.20
65378;SHT31;51982;51.042;13.806;2023-05-29T12:05:13;22.30;53.21
65378;SHT31;51982;51.042;13.806;2023-05-29T12:07:52;22.45;52.96
65378;SHT31;51982;51.042;13.806;2023-05-29T12:10:19;22.49;54.32
65378;SHT31;51982;51.042;13.806;2023-05-29T12:12:57;22.57;53.99
65378;SHT31;51982;51.042;13.806;2023-05-29T12:15:23;22.59;53.61
65378;SHT31;51982;51.042;13.806;2023-05-29T12:17:49;22.57;53.95
65378;SHT31;51982;51.042;13.806;2023-05-29T12:20:16;22.56;53.60
65378;SHT31;51982;51.042;13.806;2023-05-29T12:22:42;22.55;54.00
65378;SHT31;51982;51.042;13.806;2023-05-29T12:25:13;22.50;53.98
65378;SHT31;51982;51.042;13.806;2023-05-29T12:27:40;22.42;54.18
65378;SHT31;51982;51.042;13.806;2023-05-29T12:30:12;22.43;54.33
65378;SHT31;51982;51.042;13.806;2023-05-29T12:32:43;22.43;53.89
65378;SHT31;51982;51.042;13.806;2023-05-29T12:35:22;22.52;54.92
65378;SHT31;51982;51.042;13.806;2023-05-29T12:40:22;22.60;55.39
65378;SHT31;51982;51.042;13.806;2023-05-29T12:42:48;22.67;55.67
65378;SHT31;51982;51.042;13.806;2023-05-29T12:45:14;22.71;55.33
65378;SHT31;51982;51.042;13.806;2023-05-29T12:50:26;22.78;52.20
65378;SHT31;51982;51.042;13.806;2023-05-29T12:52:55;22.87;52.59
65378;SHT31;51982;51.042;13.806;2023-05-29T12:55:21;22.91;53.44
65378;SHT31;51982;51.042;13.806;2023-05-29T12:57:46;22.94;53.77
65378;SHT31;51982;51.042;13.806;2023-05-29T13:00:12;23.00;53.50
65378;SHT31;51982;51.042;13.806;2023-05-29T13:02:38;23.04;53.12
65378;SHT31;51982;51.042;13.806;2023-05-29T13:05:03;23.08;53.29
65378;SHT31;51982;51.042;13.806;2023-05-29T13:07:28;23.07;53.28
65378;SHT31;51982;51.042;13.806;2023-05-29T13:09:54;23.03;52.93
65378;SHT31;51982;51.042;13.806;2023-05-29T13:12:19;23.01;53.34
65378;SHT31;51982;51.042;13.806;2023-05-29T13:14:44;22.98;53.63
65378;SHT31;51982;51.042;13.806;2023-05-29T13:17:09;22.97;52.92
65378;SHT31;51982;51.042;13.806;2023-05-29T13:19:34;23.01;53.64
65378;SHT31;51982;51.042;13.806;2023-05-29T13:22:00;22.98;52.98
65378;SHT31;51982;51.042;13.806;2023-05-29T13:24:25;23.06;53.73
65378;SHT31;51982;51.042;13.806;2023-05-29T13:26:50;23.14;53.47
65378;SHT31;51982;51.042;13.806;2023-05-29T13:29:16;23.17;54.03
65378;SHT31;51982;51.042;13.806;2023-05-29T13:31:41;23.15;54.00
65378;SHT31;51982;51.042;13.806;2023-05-29T13:34:06;23.11;53.79
65378;SHT31;51982;51.042;13.806;2023-05-29T13:36:34;23.10;53.84
65378;SHT31;51982;51.042;13.806;2023-05-29T13:39:01;23.07;53.66
65378;SHT31;51982;51.042;13.806;2023-05-29T13:41:26;23.01;53.81
65378;SHT31;51982;51.042;13.806;2023-05-29T13:43:51;22.97;53.36
65378;SHT31;51982;51.042;13.806;2023-05-29T13:46:16;22.96;53.67
65378;SHT31;51982;51.042;13.806;2023-05-29T13:48:42;22.98;54.93
65378;SHT31;51982;51.042;13.806;2023-05-29T13:51:08;23.01;54.56
65378;SHT31;51982;51.042;13.806;2023-05-29T13:53:33;23.03;53.97
65378;SHT31;51982;51.042;13.806;2023-05-29T13:55:58;23.06;53.81
65378;SHT31;51982;51.042;13.806;2023-05-29T13:58:23;23.12;54.83
65378;SHT31;51982;51.042;13.806;2023-05-29T14:00:49;23.14;54.28
65378;SHT31;51982;51.042;13.806;2023-05-29T14:03:14;23.17;53.65
65378;SHT31;51982;51.042;13.806;2023-05-29T14:05:39;23.24;55.58
65378;SHT31;51982;51.042;13.806;2023-05-29T14:08:04;23.34;55.30
65378;SHT31;51982;51.042;13.806;2023-05-29T14:10:30;23.39;54.83
65378;SHT31;51982;51.042;13.806;2023-05-29T14:12:55;23.48;53.88
65378;SHT31;51982;51.042;13.806;2023-05-29T14:15:20;23.49;53.84
65378;SHT31;51982;51.042;13.806;2023-05-29T14:17:46;23.49;53.55
65378;SHT31;51982;51.042;13.806;2023-05-29T14:20:11;23.48;54.08
65378;SHT31;51982;51.042;13.806;2023-05-29T14:22:36;23.49;54.01
65378;SHT31;51982;51.042;13.806;2023-05-29T14:25:02;23.49;54.22
65378;SHT31;51982;51.042;13.806;2023-05-29T14:27:29;23.39;54.05
65378;SHT31;51982;51.042;13.806;2023-05-29T14:29:54;23.31;53.65
65378;SHT31;51982;51.042;13.806;2023-05-29T14:32:20;23.34;54.60
65378;SHT31;51982;51.042;13.806;2023-05-29T14:34:45;23.31;53.61
65378;SHT31;51982;51.042;13.806;2023-05-29T14:37:11;23.34;53.97
65378;SHT31;51982;51.042;13.806;2023-05-29T14:39:36;23.38;54.11
65378;SHT31;51982;51.042;13.806;2023-05-29T14:42:01;23.35;53.79
65378;SHT31;51982;51.042;13.806;2023-05-29T14:44:27;23.35;54.15
65378;SHT31;51982;51.042;13.806;2023-05-29T14:46:52;23.37;54.01
65378;SHT31;51982;51.042;13.806;2023-05-29T14:49:17;23.37;54.54
65378;SHT31;51982;51.042;13.806;2023-05-29T14:51:43;23.35;54.39
65378;SHT31;51982;51.042;13.806;2023-05-29T14:54:09;23.31;54.24
65378;SHT31;51982;51.042;13.806;2023-05-29T14:56:34;23.35;54.00
65378;SHT31;51982;51.042;13.806;2023-05-29T14:59:00;23.35;53.80
65378;SHT31;51982;51.042;13.806;2023-05-29T15:01:25;23.41;54.47
65378;SHT31;51982;51.042;13.806;2023-05-29T15:03:50;23.35;53.73
65378;SHT31;51982;51.042;13.806;2023-05-29T15:06:16;23.42;53.37
65378;SHT31;51982;51.042;13.806;2023-05-29T15:08:41;23.54;53.53
65378;SHT31;51982;51.042;13.806;2023-05-29T15:11:08;23.58;53.50
65378;SHT31;51982;51.042;13.806;2023-05-29T15:13:34;23.59;53.46
65378;SHT31;51982;51.042;13.806;2023-05-29T15:16:00;23.62;54.29
65378;SHT31;51982;51.042;13.806;2023-05-29T15:18:27;23.68;53.89
65378;SHT31;51982;51.042;13.806;2023-05-29T15:20:53;23.70;54.62
65378;SHT31;51982;51.042;13.806;2023-05-29T15:23:18;23.75;54.19
65378;SHT31;51982;51.042;13.806;2023-05-29T15:25:47;23.73;53.02
65378;SHT31;51982;51.042;13.806;2023-05-29T15:28:12;23.80;53.50
65378;SHT31;51982;51.042;13.806;2023-05-29T15:30:38;23.79;53.26
65378;SHT31;51982;51.042;13.806;2023-05-29T15:33:03;23.72;52.84
65378;SHT31;51982;51.042;13.806;2023-05-29T15:35:32;23.75;52.68
65378;SHT31;51982;51.042;13.806;2023-05-29T15:37:58;23.73;52.79
65378;SHT31;51982;51.042;13.806;2023-05-29T15:40:23;23.76;52.93
65378;SHT31;51982;51.042;13.806;2023-05-29T15:42:48;23.78;52.90
65378;SHT31;51982;51.042;13.806;2023-05-29T15:45:14;23.78;52.84
65378;SHT31;51982;51.042;13.806;2023-05-29T15:47:39;23.68;52.57
65378;SHT31;51982;51.042;13.806;2023-05-29T15:50:05;23.75;52.91